首页
METAR-TAF:

METAR-TAF

机场 :

布吉國際機場

普吉, 泰国

纬度: 08-07N, 经度: 098-19E, 海拔: 6米

当前天气观测

该预报发布于17分钟前的23:00 UTC
风速1节,风向多变
温度 27°C
湿度 100%
气压 1007 hPa
能见度10公里或以上
少量云层高于2000英尺

METAR: VTSP 282300Z VRB01KT 9999 FEW020 27/27 Q1007 NOSIG

时间: 06:17 (23:17 UTC)

预报

该预报发布于6小时和17分钟前的17:00 UTC
预报有效从28日的 18点(UTC)到 29日的 24点(UTC)
风速6节,风向西
能见度10公里或以上
散云层高于2000英尺
成为
从 28日的 20点(UTC)到 28日的 22点(UTC)
风速6节,风向
成为
从 29日的 02点(UTC)到 29日的 04点(UTC)
风速8节,风向西

TAF: VTSP 281700Z 2818/2924 28006KT 9999 SCT020 BECMG 2820/2822 08006KT BECMG 2902/2904 26008KT

超过4000个机场的气象观测和天气预报(METAR&TAF报告)。

可查询的气象台以黄色和红色小点在地图上表示。

将鼠标移到小点上方,可查看气象台名称。

然后点击查看天气观测和预报。

如需切换地图:点击带黑十字的绿色按钮放大地图;点击带横线的绿色按钮缩小地图;或者点击绿色箭头查看邻近地区的地图。


METAR-TAF: